createdAt,value
2022-11-29T00:00:05.057Z,809.75
2022-11-29T00:01:05.065Z,809.75
2022-11-29T00:02:05.275Z,809.71
2022-11-29T00:03:05.175Z,809.71
2022-11-29T00:04:05.081Z,809.71
2022-11-29T00:05:05.081Z,809.72
2022-11-29T00:06:05.087Z,809.71
2022-11-29T00:07:05.116Z,809.70
2022-11-29T00:08:05.096Z,809.70
2022-11-29T00:09:05.108Z,809.69
2022-11-29T00:10:05.107Z,809.65
2022-11-29T00:11:05.122Z,809.67
2022-11-29T00:12:05.123Z,809.64
2022-11-29T00:13:05.119Z,809.63
2022-11-29T00:14:05.229Z,809.60
2022-11-29T00:15:05.131Z,809.63
2022-11-29T00:16:05.139Z,809.62
2022-11-29T00:17:05.186Z,809.64
2022-11-29T00:18:05.149Z,809.62
2022-11-29T00:19:05.152Z,809.60
2022-11-29T00:20:05.157Z,809.62
2022-11-29T00:21:05.160Z,809.60
2022-11-29T00:22:05.168Z,809.56
2022-11-29T00:23:05.187Z,809.54
2022-11-29T00:24:05.195Z,809.48
2022-11-29T00:25:05.178Z,809.54
2022-11-29T00:26:05.188Z,809.55
2022-11-29T00:27:05.190Z,809.55
2022-11-29T00:28:05.214Z,809.57
2022-11-29T00:29:05.197Z,809.50
2022-11-29T00:30:05.207Z,809.53
2022-11-29T00:31:05.238Z,809.54
2022-11-29T00:32:05.220Z,809.54
2022-11-29T00:33:05.217Z,809.50
2022-11-29T00:34:05.231Z,809.52
2022-11-29T00:35:09.437Z,809.51
2022-11-29T00:36:05.238Z,809.49
2022-11-29T00:37:05.235Z,809.51
2022-11-29T00:38:05.248Z,809.47
2022-11-29T00:39:05.270Z,809.45
2022-11-29T00:40:05.256Z,809.46
2022-11-29T00:41:05.259Z,809.42
2022-11-29T00:42:05.267Z,809.40
2022-11-29T00:43:05.281Z,809.40
2022-11-29T00:44:05.276Z,809.38
2022-11-29T00:45:05.277Z,809.39
2022-11-29T00:46:05.328Z,809.38
2022-11-29T00:47:05.288Z,809.42
2022-11-29T00:48:05.315Z,809.44
2022-11-29T00:49:05.297Z,809.40
2022-11-29T00:50:05.307Z,809.41
2022-11-29T00:51:05.307Z,809.41
2022-11-29T00:52:05.319Z,809.41
2022-11-29T00:53:05.318Z,809.44
2022-11-29T00:54:05.327Z,809.43
2022-11-29T00:55:05.345Z,809.41
2022-11-29T00:56:05.335Z,809.43
2022-11-29T00:57:05.340Z,809.42
2022-11-29T00:58:05.346Z,809.42
2022-11-29T00:59:05.347Z,809.37
2022-11-29T01:00:05.359Z,809.41
2022-11-29T01:01:05.435Z,809.40
2022-11-29T01:02:05.440Z,809.42
2022-11-29T01:03:05.369Z,809.36
2022-11-29T01:04:05.379Z,809.36
2022-11-29T01:05:05.380Z,809.38
2022-11-29T01:06:05.385Z,809.38
2022-11-29T01:07:05.388Z,809.35
2022-11-29T01:08:05.397Z,809.34
2022-11-29T01:09:05.401Z,809.33
2022-11-29T01:10:05.407Z,809.34
2022-11-29T01:11:05.432Z,809.33
2022-11-29T01:12:05.420Z,809.32
2022-11-29T01:13:05.418Z,809.30
2022-11-29T01:14:05.452Z,809.32
2022-11-29T01:15:05.434Z,809.33
2022-11-29T01:16:05.437Z,809.30
2022-11-29T01:17:05.469Z,809.29
2022-11-29T01:18:05.448Z,809.31
2022-11-29T01:19:05.450Z,809.31
2022-11-29T01:20:05.463Z,809.30
2022-11-29T01:21:05.457Z,809.29
2022-11-29T01:22:05.467Z,809.32
2022-11-29T01:23:05.471Z,809.32
2022-11-29T01:24:05.478Z,809.31
2022-11-29T01:25:05.477Z,809.32
2022-11-29T01:26:05.487Z,809.34
2022-11-29T01:27:05.508Z,809.33
2022-11-29T01:28:05.497Z,809.34
2022-11-29T01:29:05.507Z,809.29
2022-11-29T01:30:05.509Z,809.32
2022-11-29T01:31:05.556Z,809.33
2022-11-29T01:32:05.571Z,809.32
2022-11-29T01:33:05.519Z,809.31
2022-11-29T01:34:05.529Z,809.32
2022-11-29T01:35:05.531Z,809.28
2022-11-29T01:36:05.542Z,809.28
2022-11-29T01:37:05.544Z,809.31
2022-11-29T01:38:05.551Z,809.28
2022-11-29T01:39:05.549Z,809.29
2022-11-29T01:40:05.557Z,809.26
2022-11-29T01:41:05.560Z,809.31
2022-11-29T01:42:05.569Z,809.28
2022-11-29T01:43:05.590Z,809.28
2022-11-29T01:44:05.587Z,809.25
2022-11-29T01:45:05.583Z,809.25
2022-11-29T01:46:05.681Z,809.25
2022-11-29T01:47:05.591Z,809.20
2022-11-29T01:48:05.600Z,809.23
2022-11-29T01:49:05.599Z,809.21
2022-11-29T01:50:05.610Z,809.24
2022-11-29T01:51:05.612Z,809.24
2022-11-29T01:52:05.629Z,809.22
2022-11-29T01:53:05.635Z,809.21
2022-11-29T01:54:05.629Z,809.20
2022-11-29T01:55:05.637Z,809.21
2022-11-29T01:56:05.694Z,809.20
2022-11-29T01:57:05.640Z,809.20
2022-11-29T01:58:05.672Z,809.20
2022-11-29T01:59:05.774Z,809.21
2022-11-29T02:00:05.665Z,809.18
2022-11-29T02:01:05.699Z,809.19
2022-11-29T02:02:05.729Z,809.17
2022-11-29T02:03:05.670Z,809.15
2022-11-29T02:04:05.679Z,809.17
2022-11-29T02:05:05.684Z,809.16
2022-11-29T02:06:05.727Z,809.13
2022-11-29T02:07:05.691Z,809.14
2022-11-29T02:08:05.704Z,809.14
2022-11-29T02:09:05.699Z,809.09
2022-11-29T02:10:05.710Z,809.11
2022-11-29T02:11:05.711Z,809.11
2022-11-29T02:12:05.721Z,809.11
2022-11-29T02:13:05.722Z,809.14
2022-11-29T02:14:05.747Z,809.09
2022-11-29T02:15:05.777Z,809.09
2022-11-29T02:16:05.785Z,809.09
2022-11-29T02:17:05.741Z,809.11
2022-11-29T02:18:05.752Z,809.06
2022-11-29T02:19:05.751Z,809.07
2022-11-29T02:20:05.760Z,809.05
2022-11-29T02:21:05.766Z,809.07
2022-11-29T02:22:05.771Z,809.06
2022-11-29T02:23:05.871Z,809.02
2022-11-29T02:24:05.779Z,809.02
2022-11-29T02:25:05.780Z,809.05
2022-11-29T02:26:05.789Z,809.02
2022-11-29T02:27:05.791Z,809.02
2022-11-29T02:28:05.800Z,809.05
2022-11-29T02:29:05.800Z,809.07
2022-11-29T02:30:05.813Z,809.03
2022-11-29T02:31:05.854Z,809.06
2022-11-29T02:32:05.820Z,809.01
2022-11-29T02:33:05.821Z,808.99
2022-11-29T02:34:05.830Z,809.04
2022-11-29T02:35:05.832Z,809.03
2022-11-29T02:36:05.843Z,809.04
2022-11-29T02:37:11.308Z,809.02
2022-11-29T02:38:05.847Z,809.05
2022-11-29T02:39:05.851Z,809.04
2022-11-29T02:40:05.858Z,809.04
2022-11-29T02:41:05.858Z,809.04
2022-11-29T02:42:05.902Z,809.00
2022-11-29T02:43:05.875Z,809.00
2022-11-29T02:44:05.877Z,809.02
2022-11-29T02:45:05.881Z,809.03
2022-11-29T02:46:05.950Z,808.98
2022-11-29T02:47:05.916Z,808.98
2022-11-29T02:48:05.901Z,809.02
2022-11-29T02:49:05.898Z,809.04
2022-11-29T02:50:05.907Z,809.01
2022-11-29T02:51:05.910Z,809.01
2022-11-29T02:52:05.921Z,809.05
2022-11-29T02:53:05.922Z,809.01
2022-11-29T02:54:05.929Z,809.01
2022-11-29T02:55:05.931Z,809.00
2022-11-29T02:56:05.937Z,809.02
2022-11-29T02:57:05.942Z,809.01
2022-11-29T02:58:05.951Z,809.01
2022-11-29T02:59:05.948Z,809.00
2022-11-29T03:00:05.958Z,809.04
2022-11-29T03:01:05.984Z,809.01
2022-11-29T03:02:06.017Z,809.03
2022-11-29T03:03:05.990Z,809.05
2022-11-29T03:04:05.977Z,808.99
2022-11-29T03:05:05.977Z,809.00
2022-11-29T03:06:05.991Z,809.02
2022-11-29T03:07:06.018Z,809.02
2022-11-29T03:08:06.013Z,809.03
2022-11-29T03:09:06.013Z,809.07
2022-11-29T03:10:06.008Z,809.02
2022-11-29T03:11:06.006Z,809.05
2022-11-29T03:12:06.017Z,809.02
2022-11-29T03:13:06.016Z,809.04
2022-11-29T03:14:06.022Z,809.05
2022-11-29T03:15:06.048Z,809.05
2022-11-29T03:16:06.087Z,809.03
2022-11-29T03:17:06.045Z,809.02
2022-11-29T03:18:06.043Z,809.02
2022-11-29T03:19:06.069Z,809.05
2022-11-29T03:20:06.052Z,809.04
2022-11-29T03:21:06.054Z,809.03
2022-11-29T03:22:06.071Z,809.02
2022-11-29T03:23:06.068Z,809.01
2022-11-29T03:24:06.072Z,809.03
2022-11-29T03:25:06.080Z,809.02
2022-11-29T03:26:06.081Z,809.01
2022-11-29T03:27:06.085Z,809.03
2022-11-29T03:28:06.102Z,809.00
2022-11-29T03:29:06.095Z,809.02
2022-11-29T03:30:06.117Z,809.01
2022-11-29T03:31:06.149Z,809.05
2022-11-29T03:32:06.110Z,809.02
2022-11-29T03:33:06.212Z,808.99
2022-11-29T03:34:06.120Z,808.98
2022-11-29T03:35:06.146Z,808.99
2022-11-29T03:36:06.137Z,809.01
2022-11-29T03:37:06.145Z,809.00
2022-11-29T03:38:06.139Z,809.00
2022-11-29T03:39:06.148Z,809.06
2022-11-29T03:40:06.150Z,809.05
2022-11-29T03:41:06.151Z,809.04
2022-11-29T03:42:06.160Z,809.01
2022-11-29T03:43:06.161Z,809.03
2022-11-29T03:44:06.177Z,809.03
2022-11-29T03:45:06.169Z,809.00
2022-11-29T03:46:06.260Z,809.04
2022-11-29T03:47:06.181Z,809.00
2022-11-29T03:48:06.193Z,809.06
2022-11-29T03:49:06.214Z,809.04
2022-11-29T03:50:06.196Z,809.06
2022-11-29T03:51:06.222Z,809.06
2022-11-29T03:52:06.206Z,809.05
2022-11-29T03:53:06.207Z,809.04
2022-11-29T03:54:06.217Z,809.08
2022-11-29T03:55:06.218Z,809.07
2022-11-29T03:56:06.228Z,809.04
2022-11-29T03:57:06.228Z,809.08
2022-11-29T03:58:06.234Z,809.06
2022-11-29T03:59:06.252Z,809.01
2022-11-29T04:00:06.245Z,809.02
2022-11-29T04:01:06.346Z,809.00
2022-11-29T04:02:06.254Z,809.01
2022-11-29T04:03:06.260Z,809.01
2022-11-29T04:04:06.269Z,809.03
2022-11-29T04:05:06.274Z,809.05
2022-11-29T04:06:06.271Z,808.98
2022-11-29T04:07:06.292Z,808.98
2022-11-29T04:08:06.291Z,809.00
2022-11-29T04:09:06.281Z,809.01
2022-11-29T04:10:06.291Z,809.02
2022-11-29T04:11:06.293Z,809.00
2022-11-29T04:12:06.302Z,809.05
2022-11-29T04:13:06.300Z,809.03
2022-11-29T04:14:06.307Z,809.03
2022-11-29T04:15:06.311Z,809.00
2022-11-29T04:16:06.375Z,809.03
2022-11-29T04:17:06.320Z,809.01
2022-11-29T04:18:06.327Z,809.01
2022-11-29T04:19:06.335Z,809.02
2022-11-29T04:20:06.336Z,809.02
2022-11-29T04:21:06.346Z,809.01
2022-11-29T04:22:06.346Z,809.00
2022-11-29T04:23:06.369Z,809.01
2022-11-29T04:24:06.355Z,808.99
2022-11-29T04:25:06.355Z,808.97
2022-11-29T04:26:06.367Z,808.99
2022-11-29T04:27:06.365Z,808.96
2022-11-29T04:28:06.373Z,808.98
2022-11-29T04:29:06.381Z,809.02
2022-11-29T04:30:06.385Z,808.99
2022-11-29T04:31:06.452Z,809.05
2022-11-29T04:32:06.390Z,809.02
2022-11-29T04:33:06.395Z,809.05
2022-11-29T04:34:06.397Z,809.02
2022-11-29T04:35:06.404Z,809.04
2022-11-29T04:36:06.410Z,809.02
2022-11-29T04:37:06.414Z,809.04
2022-11-29T04:38:06.414Z,809.04
2022-11-29T04:39:06.446Z,809.07
2022-11-29T04:40:06.423Z,809.05
2022-11-29T04:41:06.449Z,809.03
2022-11-29T04:42:06.435Z,809.07
2022-11-29T04:43:06.440Z,809.06
2022-11-29T04:44:06.443Z,809.10
2022-11-29T04:45:06.450Z,809.11
2022-11-29T04:46:06.516Z,809.08
2022-11-29T04:47:06.460Z,809.10
2022-11-29T04:48:06.461Z,809.09
2022-11-29T04:49:06.468Z,809.07
2022-11-29T04:50:06.475Z,809.08
2022-11-29T04:51:06.480Z,809.09
2022-11-29T04:52:06.479Z,809.07
2022-11-29T04:53:06.490Z,809.10
2022-11-29T04:54:06.488Z,809.09
2022-11-29T04:55:06.517Z,809.10
2022-11-29T04:56:06.502Z,809.11
2022-11-29T04:57:06.503Z,809.11
2022-11-29T04:58:06.510Z,809.14
2022-11-29T04:59:06.519Z,809.14
2022-11-29T05:00:06.517Z,809.14
2022-11-29T05:01:06.521Z,809.13
2022-11-29T05:02:06.569Z,809.13
2022-11-29T05:03:06.580Z,809.11
2022-11-29T05:04:06.533Z,809.15
2022-11-29T05:05:06.542Z,809.14
2022-11-29T05:06:06.542Z,809.14
2022-11-29T05:07:06.551Z,809.14
2022-11-29T05:08:06.549Z,809.14
2022-11-29T05:09:06.561Z,809.12
2022-11-29T05:10:06.563Z,809.13
2022-11-29T05:11:06.585Z,809.17
2022-11-29T05:12:06.570Z,809.15
2022-11-29T05:13:06.594Z,809.14
2022-11-29T05:14:06.584Z,809.15
2022-11-29T05:15:06.587Z,809.16
2022-11-29T05:16:06.644Z,809.16
2022-11-29T05:17:06.598Z,809.17
2022-11-29T05:18:06.597Z,809.17
2022-11-29T05:19:06.605Z,809.16
2022-11-29T05:20:06.606Z,809.15
2022-11-29T05:21:06.611Z,809.14
2022-11-29T05:22:06.615Z,809.17
2022-11-29T05:23:06.627Z,809.14
2022-11-29T05:24:06.624Z,809.14
2022-11-29T05:25:06.630Z,809.12
2022-11-29T05:26:06.635Z,809.15
2022-11-29T05:27:06.666Z,809.15
2022-11-29T05:28:09.991Z,809.16
2022-11-29T05:29:06.650Z,809.15
2022-11-29T05:30:06.657Z,809.17
2022-11-29T05:31:06.696Z,809.12
2022-11-29T05:32:06.663Z,809.10
2022-11-29T05:33:06.674Z,809.14
2022-11-29T05:34:06.667Z,809.10
2022-11-29T05:35:06.693Z,809.12
2022-11-29T05:36:06.683Z,809.12
2022-11-29T05:37:06.689Z,809.13
2022-11-29T05:38:06.687Z,809.11
2022-11-29T05:39:06.694Z,809.11
2022-11-29T05:40:06.696Z,809.13
2022-11-29T05:41:06.804Z,809.12
2022-11-29T05:42:06.704Z,809.15
2022-11-29T05:43:06.734Z,809.18
2022-11-29T05:44:06.714Z,809.19
2022-11-29T05:45:06.720Z,809.17
2022-11-29T05:46:06.751Z,809.18
2022-11-29T05:47:06.736Z,809.17
2022-11-29T05:48:06.731Z,809.15
2022-11-29T05:49:06.742Z,809.19
2022-11-29T05:50:06.742Z,809.18
2022-11-29T05:51:06.747Z,809.17
2022-11-29T05:52:06.752Z,809.19
2022-11-29T05:53:06.756Z,809.17
2022-11-29T05:54:06.776Z,809.23
2022-11-29T05:55:06.775Z,809.17
2022-11-29T05:56:06.768Z,809.20
2022-11-29T05:57:06.773Z,809.21
2022-11-29T05:58:06.774Z,809.24
2022-11-29T05:59:06.810Z,809.16
2022-11-29T06:00:06.783Z,809.19
2022-11-29T06:01:06.793Z,809.21
2022-11-29T06:02:06.807Z,809.22
2022-11-29T06:03:06.887Z,809.20
2022-11-29T06:04:11.677Z,809.23
2022-11-29T06:05:06.809Z,809.24
2022-11-29T06:06:06.811Z,809.23
2022-11-29T06:07:06.819Z,809.22
2022-11-29T06:08:06.822Z,809.22
2022-11-29T06:09:06.830Z,809.21
2022-11-29T06:10:06.828Z,809.25
2022-11-29T06:11:06.837Z,809.21
2022-11-29T06:12:06.851Z,809.19
2022-11-29T06:13:06.842Z,809.18
2022-11-29T06:14:06.844Z,809.15
2022-11-29T06:15:06.875Z,809.17
2022-11-29T06:16:06.923Z,809.19
2022-11-29T06:17:06.863Z,809.20
2022-11-29T06:18:06.862Z,809.18
2022-11-29T06:19:06.887Z,809.23
2022-11-29T06:20:06.872Z,809.21
2022-11-29T06:21:06.886Z,809.20
2022-11-29T06:22:06.880Z,809.23
2022-11-29T06:23:06.892Z,809.25
2022-11-29T06:24:06.889Z,809.24
2022-11-29T06:25:06.901Z,809.25
2022-11-29T06:26:06.898Z,809.22
2022-11-29T06:27:06.904Z,809.29
2022-11-29T06:28:06.915Z,809.24
2022-11-29T06:29:06.917Z,809.23
2022-11-29T06:30:06.925Z,809.28
2022-11-29T06:31:06.963Z,809.27
2022-11-29T06:32:06.938Z,809.28
2022-11-29T06:33:06.929Z,809.29
2022-11-29T06:34:06.933Z,809.29
2022-11-29T06:35:06.942Z,809.28
2022-11-29T06:36:06.943Z,809.29
2022-11-29T06:37:06.962Z,809.26
2022-11-29T06:38:06.947Z,809.29
2022-11-29T06:39:06.958Z,809.32
2022-11-29T06:40:06.957Z,809.32
2022-11-29T06:41:06.964Z,809.30
2022-11-29T06:42:06.971Z,809.31
2022-11-29T06:43:06.973Z,809.33
2022-11-29T06:44:06.976Z,809.35
2022-11-29T06:45:06.982Z,809.35
2022-11-29T06:46:06.985Z,809.40
2022-11-29T06:47:07.008Z,809.36
2022-11-29T06:48:06.993Z,809.37
2022-11-29T06:49:07.020Z,809.41
2022-11-29T06:50:07.013Z,809.43
2022-11-29T06:51:07.009Z,809.38
2022-11-29T06:52:07.013Z,809.39
2022-11-29T06:53:07.021Z,809.40
2022-11-29T06:54:07.019Z,809.42
2022-11-29T06:55:07.034Z,809.45
2022-11-29T06:56:07.028Z,809.43
2022-11-29T06:57:07.032Z,809.41
2022-11-29T06:58:07.037Z,809.42
2022-11-29T06:59:07.049Z,809.43
2022-11-29T07:00:07.045Z,809.45
2022-11-29T07:01:07.232Z,809.41
2022-11-29T07:02:07.115Z,809.46
2022-11-29T07:03:07.077Z,809.40
2022-11-29T07:04:07.061Z,809.44
2022-11-29T07:05:07.068Z,809.44
2022-11-29T07:06:07.071Z,809.42
2022-11-29T07:07:07.079Z,809.44
2022-11-29T07:08:07.079Z,809.40
2022-11-29T07:09:07.088Z,809.42
2022-11-29T07:10:10.666Z,809.42
2022-11-29T07:11:07.096Z,809.43
2022-11-29T07:12:07.098Z,809.45
2022-11-29T07:13:07.103Z,809.47
2022-11-29T07:14:07.205Z,809.50
2022-11-29T07:15:07.113Z,809.50
2022-11-29T07:16:07.131Z,809.53
2022-11-29T07:17:07.120Z,809.54
2022-11-29T07:18:07.124Z,809.51
2022-11-29T07:19:07.154Z,809.51
2022-11-29T07:20:07.131Z,809.54
2022-11-29T07:21:07.137Z,809.53
2022-11-29T07:22:07.140Z,809.56
2022-11-29T07:23:07.148Z,809.59
2022-11-29T07:24:07.158Z,809.59
2022-11-29T07:25:07.157Z,809.55
2022-11-29T07:26:07.155Z,809.56
2022-11-29T07:27:07.166Z,809.57
2022-11-29T07:28:07.166Z,809.57
2022-11-29T07:29:07.173Z,809.54
2022-11-29T07:30:07.179Z,809.54
2022-11-29T07:31:07.230Z,809.54
2022-11-29T07:32:07.184Z,809.53
2022-11-29T07:33:07.194Z,809.51
2022-11-29T07:34:07.190Z,809.55
2022-11-29T07:35:07.221Z,809.58
2022-11-29T07:36:07.202Z,809.57
2022-11-29T07:37:07.205Z,809.54
2022-11-29T07:38:07.208Z,809.52
2022-11-29T07:39:07.217Z,809.55
2022-11-29T07:40:07.216Z,809.55
2022-11-29T07:41:07.345Z,809.52
2022-11-29T07:42:07.226Z,809.54
2022-11-29T07:43:07.233Z,809.54
2022-11-29T07:44:07.236Z,809.54
2022-11-29T07:45:07.242Z,809.54
2022-11-29T07:46:07.255Z,809.56
2022-11-29T07:47:07.249Z,809.57
2022-11-29T07:48:07.252Z,809.55
2022-11-29T07:49:07.261Z,809.54
2022-11-29T07:50:07.263Z,809.58
2022-11-29T07:51:07.288Z,809.61
2022-11-29T07:52:07.274Z,809.58
2022-11-29T07:53:07.278Z,809.60
2022-11-29T07:54:07.279Z,809.60
2022-11-29T07:55:07.289Z,809.62
2022-11-29T07:56:07.287Z,809.61
2022-11-29T07:57:07.296Z,809.64
2022-11-29T07:58:07.294Z,809.62
2022-11-29T07:59:07.357Z,809.60
2022-11-29T08:00:07.403Z,809.60
2022-11-29T08:01:07.376Z,809.57
2022-11-29T08:02:11.696Z,809.60
2022-11-29T08:03:07.320Z,809.61
2022-11-29T08:04:07.322Z,809.62
2022-11-29T08:05:07.329Z,809.60
2022-11-29T08:06:07.329Z,809.61
2022-11-29T08:07:07.359Z,809.64
2022-11-29T08:08:07.341Z,809.64
2022-11-29T08:09:07.346Z,809.67
2022-11-29T08:10:07.346Z,809.65
2022-11-29T08:11:07.371Z,809.60
2022-11-29T08:12:07.361Z,809.67
2022-11-29T08:13:07.362Z,809.70
2022-11-29T08:14:07.381Z,809.65
2022-11-29T08:15:07.374Z,809.66
2022-11-29T08:16:07.398Z,809.65
2022-11-29T08:17:07.382Z,809.65
2022-11-29T08:18:07.379Z,809.68
2022-11-29T08:19:07.417Z,809.68
2022-11-29T08:20:07.391Z,809.70
2022-11-29T08:21:07.402Z,809.70
2022-11-29T08:22:07.398Z,809.67
2022-11-29T08:23:07.425Z,809.72
2022-11-29T08:24:07.410Z,809.66
2022-11-29T08:25:07.414Z,809.69
2022-11-29T08:26:07.415Z,809.72
2022-11-29T08:27:07.426Z,809.69
2022-11-29T08:28:07.425Z,809.71
2022-11-29T08:29:07.432Z,809.74
2022-11-29T08:30:07.434Z,809.69
2022-11-29T08:31:07.440Z,809.65
2022-11-29T08:32:07.444Z,809.69
2022-11-29T08:33:07.448Z,809.71
2022-11-29T08:34:07.451Z,809.75
2022-11-29T08:35:07.468Z,809.73
2022-11-29T08:36:07.463Z,809.71
2022-11-29T08:37:07.472Z,809.70
2022-11-29T08:38:07.467Z,809.70
2022-11-29T08:39:09.490Z,809.73
2022-11-29T08:40:07.483Z,809.75
2022-11-29T08:41:07.487Z,809.73
2022-11-29T08:42:07.487Z,809.75
2022-11-29T08:43:07.594Z,809.76
2022-11-29T08:44:07.500Z,809.76
2022-11-29T08:45:07.498Z,809.82
2022-11-29T08:46:07.592Z,809.81
2022-11-29T08:47:07.511Z,809.83
2022-11-29T08:48:07.528Z,809.76
2022-11-29T08:49:07.518Z,809.76
2022-11-29T08:50:07.526Z,809.79
2022-11-29T08:51:07.528Z,809.83
2022-11-29T08:52:07.535Z,809.83
2022-11-29T08:53:07.544Z,809.84
2022-11-29T08:54:07.545Z,809.85
2022-11-29T08:55:07.568Z,809.86
2022-11-29T08:56:31.932Z,809.86
2022-11-29T08:58:07.561Z,809.84
2022-11-29T08:59:07.563Z,809.82
2022-11-29T09:00:07.570Z,809.84
2022-11-29T09:01:07.587Z,809.83
2022-11-29T09:02:07.604Z,809.82
2022-11-29T09:03:07.581Z,809.84
2022-11-29T09:04:07.595Z,809.87
2022-11-29T09:05:07.591Z,809.85
2022-11-29T09:06:12.050Z,809.90
2022-11-29T09:07:07.602Z,809.90
2022-11-29T09:08:07.609Z,809.88
2022-11-29T09:09:07.610Z,809.90
2022-11-29T09:10:07.617Z,809.91
2022-11-29T09:11:07.643Z,809.95
2022-11-29T09:12:07.625Z,809.95
2022-11-29T09:13:07.626Z,809.95
2022-11-29T09:14:07.637Z,809.94
2022-11-29T09:15:07.636Z,809.96
2022-11-29T09:16:07.677Z,809.97
2022-11-29T09:17:07.645Z,809.96
2022-11-29T09:18:07.655Z,809.95
2022-11-29T09:19:07.654Z,809.98
2022-11-29T09:20:07.665Z,810.02
2022-11-29T09:21:07.662Z,810.04
2022-11-29T09:22:07.670Z,810.02
2022-11-29T09:23:07.684Z,810.00
2022-11-29T09:24:07.684Z,810.05
2022-11-29T09:25:07.681Z,810.08
2022-11-29T09:26:07.716Z,810.01
2022-11-29T09:27:07.713Z,810.04
2022-11-29T09:28:07.700Z,810.06
2022-11-29T09:29:07.702Z,810.10
2022-11-29T09:30:07.711Z,810.04
2022-11-29T09:31:07.723Z,810.07
2022-11-29T09:32:07.799Z,810.05
2022-11-29T09:33:07.719Z,810.04
2022-11-29T09:34:07.731Z,810.09
2022-11-29T09:35:07.733Z,810.09
2022-11-29T09:36:07.740Z,810.08
2022-11-29T09:37:07.738Z,810.11
2022-11-29T09:38:07.747Z,810.11
2022-11-29T09:39:07.746Z,810.13
2022-11-29T09:40:07.755Z,810.10
2022-11-29T09:41:07.777Z,810.13
2022-11-29T09:42:07.766Z,810.11
2022-11-29T09:43:07.784Z,810.12
2022-11-29T09:44:07.774Z,810.12
2022-11-29T09:45:07.778Z,810.16
2022-11-29T09:46:07.814Z,810.12
2022-11-29T09:47:07.785Z,810.14
2022-11-29T09:48:07.793Z,810.15
2022-11-29T09:49:07.796Z,810.14
2022-11-29T09:50:07.803Z,810.15
2022-11-29T09:51:07.804Z,810.12
2022-11-29T09:52:07.814Z,810.11
2022-11-29T09:53:07.812Z,810.16
2022-11-29T09:54:07.821Z,810.15
2022-11-29T09:55:07.823Z,810.16
2022-11-29T09:56:07.851Z,810.17
2022-11-29T09:57:10.840Z,810.19
2022-11-29T09:58:07.839Z,810.14
2022-11-29T09:59:07.866Z,810.16
2022-11-29T10:00:07.852Z,810.17
2022-11-29T10:01:07.873Z,810.19
2022-11-29T10:02:07.905Z,810.17
2022-11-29T10:03:07.863Z,810.16
2022-11-29T10:04:07.871Z,810.14
2022-11-29T10:05:07.873Z,810.17
2022-11-29T10:06:07.877Z,810.14
2022-11-29T10:07:07.880Z,810.17
2022-11-29T10:08:07.886Z,810.13
2022-11-29T10:09:07.891Z,810.11
2022-11-29T10:10:07.901Z,810.15
2022-11-29T10:11:07.902Z,810.14
2022-11-29T10:12:07.908Z,810.11
2022-11-29T10:13:07.908Z,810.07
2022-11-29T10:14:07.917Z,810.11
2022-11-29T10:15:07.941Z,810.11
2022-11-29T10:16:07.983Z,810.09
2022-11-29T10:17:07.931Z,810.09
2022-11-29T10:18:07.937Z,810.14
2022-11-29T10:19:07.944Z,810.12
2022-11-29T10:20:07.951Z,810.12
2022-11-29T10:21:07.946Z,810.15
2022-11-29T10:22:07.955Z,810.10
2022-11-29T10:23:07.960Z,810.11
2022-11-29T10:24:07.969Z,810.11
2022-11-29T10:25:07.967Z,810.13
2022-11-29T10:26:08.007Z,810.13
2022-11-29T10:27:07.979Z,810.11
2022-11-29T10:28:07.987Z,810.13
2022-11-29T10:29:07.987Z,810.14
2022-11-29T10:30:07.999Z,810.12
2022-11-29T10:31:08.079Z,810.16
2022-11-29T10:32:10.383Z,810.11
2022-11-29T10:33:08.010Z,810.16
2022-11-29T10:34:08.019Z,810.12
2022-11-29T10:35:08.020Z,810.13
2022-11-29T10:36:08.032Z,810.18
2022-11-29T10:37:08.029Z,810.15
2022-11-29T10:38:29.640Z,810.17
2022-11-29T10:39:14.202Z,810.13
2022-11-29T10:40:08.079Z,810.09
2022-11-29T10:41:08.055Z,810.12
2022-11-29T10:42:08.060Z,810.13
2022-11-29T10:43:08.063Z,810.09
2022-11-29T10:44:08.073Z,810.12
2022-11-29T10:45:08.091Z,810.10
2022-11-29T10:46:08.092Z,810.06
2022-11-29T10:47:11.057Z,810.08
2022-11-29T10:48:08.103Z,810.05
2022-11-29T10:49:08.096Z,810.08
2022-11-29T10:50:08.107Z,810.08
2022-11-29T10:51:08.106Z,810.01
2022-11-29T10:52:08.114Z,810.03
2022-11-29T10:53:08.117Z,810.02
2022-11-29T10:54:08.128Z,810.00
2022-11-29T10:55:08.128Z,809.98
2022-11-29T10:56:08.139Z,810.01
2022-11-29T10:57:08.139Z,810.01
2022-11-29T10:58:08.158Z,810.01
2022-11-29T10:59:08.154Z,809.98
2022-11-29T11:00:08.160Z,809.99
2022-11-29T11:01:08.416Z,809.93
2022-11-29T11:02:08.177Z,809.96
2022-11-29T11:03:08.199Z,809.97
2022-11-29T11:04:08.181Z,809.97
2022-11-29T11:05:08.196Z,809.92
2022-11-29T11:06:08.193Z,809.93
2022-11-29T11:07:08.195Z,809.92
2022-11-29T11:08:08.206Z,809.93
2022-11-29T11:09:08.206Z,809.91
2022-11-29T11:10:08.213Z,809.94
2022-11-29T11:11:08.221Z,809.92
2022-11-29T11:12:08.226Z,809.89
2022-11-29T11:13:08.230Z,809.95
2022-11-29T11:14:08.239Z,809.92
2022-11-29T11:15:08.241Z,809.93
2022-11-29T11:16:08.267Z,809.90
2022-11-29T11:17:08.276Z,809.90
2022-11-29T11:18:08.262Z,809.92
2022-11-29T11:19:08.297Z,809.92
2022-11-29T11:20:08.276Z,809.89
2022-11-29T11:21:08.275Z,809.90
2022-11-29T11:22:08.286Z,809.90
2022-11-29T11:23:08.288Z,809.89
2022-11-29T11:24:08.299Z,809.92
2022-11-29T11:25:08.300Z,809.92
2022-11-29T11:26:08.309Z,809.96
2022-11-29T11:27:08.315Z,809.95
2022-11-29T11:28:08.318Z,809.90
2022-11-29T11:29:08.327Z,809.97
2022-11-29T11:30:08.333Z,809.94
2022-11-29T11:31:08.536Z,809.96
2022-11-29T11:32:08.343Z,809.96
2022-11-29T11:33:08.346Z,809.93
2022-11-29T11:34:08.358Z,809.93
2022-11-29T11:35:08.372Z,809.95
2022-11-29T11:36:08.367Z,809.95
2022-11-29T11:37:08.379Z,809.95
2022-11-29T11:38:08.377Z,810.00
2022-11-29T11:39:08.381Z,809.95
2022-11-29T11:40:08.453Z,809.96
2022-11-29T11:41:08.405Z,809.98
2022-11-29T11:42:08.403Z,809.98
2022-11-29T11:43:08.399Z,809.97
2022-11-29T11:44:15.227Z,809.99
2022-11-29T11:45:08.412Z,809.98
2022-11-29T11:46:09.347Z,809.98
2022-11-29T11:47:08.424Z,810.04
2022-11-29T11:48:08.435Z,810.01
2022-11-29T11:49:08.434Z,810.00
2022-11-29T11:50:08.446Z,809.97
2022-11-29T11:51:08.465Z,809.99
2022-11-29T11:52:08.455Z,809.99
2022-11-29T11:53:08.460Z,809.95
2022-11-29T11:54:08.468Z,809.96
2022-11-29T11:55:08.474Z,809.96
2022-11-29T11:56:08.480Z,809.96
2022-11-29T11:57:08.482Z,809.96
2022-11-29T11:58:10.568Z,809.99
2022-11-29T11:59:08.492Z,809.98
2022-11-29T12:00:08.505Z,810.00
2022-11-29T12:01:08.502Z,810.00
2022-11-29T12:02:08.558Z,810.00
2022-11-29T12:03:08.704Z,809.96
2022-11-29T12:04:08.526Z,809.95
2022-11-29T12:05:08.556Z,809.97
2022-11-29T12:06:08.539Z,809.96
2022-11-29T12:07:08.559Z,809.97
2022-11-29T12:08:08.977Z,809.91
2022-11-29T12:09:08.567Z,809.96
2022-11-29T12:10:08.581Z,809.96
2022-11-29T12:11:08.558Z,809.95
2022-11-29T12:12:08.566Z,809.95
2022-11-29T12:13:08.570Z,809.98
2022-11-29T12:14:08.581Z,810.00
2022-11-29T12:15:08.580Z,810.00
2022-11-29T12:16:08.656Z,810.04
2022-11-29T12:17:08.594Z,810.05
2022-11-29T12:18:08.597Z,810.00
2022-11-29T12:19:08.614Z,810.04
2022-11-29T12:20:08.610Z,810.04
2022-11-29T12:21:08.612Z,810.04
2022-11-29T12:22:08.621Z,810.06
2022-11-29T12:23:08.643Z,810.06
2022-11-29T12:24:08.629Z,810.02
2022-11-29T12:25:08.632Z,810.07
2022-11-29T12:26:08.680Z,810.11
2022-11-29T12:27:08.655Z,810.14
2022-11-29T12:28:08.655Z,810.14
2022-11-29T12:29:08.653Z,810.13